Time;durP1;ratioP1;P1;durP2;ratioP2;P2;SDS_P1;SDS_P2;PMS_P1;PMS_P2;Temp;Humidity;BMP_temperature;BMP_pressure;BME280_temperature;BME280_humidity;BME280_pressure;Samples;Min_cycle;Max_cycle;Signal;HPM_P1;HPM_P2
2021/03/01 00:01:52;;;;;;;6.88;2.10;;;;;;;22.51;47.81;102911.66;5075073;28;20027;-62
2021/03/01 00:04:17;;;;;;;6.25;1.88;;;;;;;22.51;49.11;102907.03;5075378;28;20036;-63
2021/03/01 00:06:43;;;;;;;8.23;2.05;;;;;;;22.52;48.33;102905.16;5074879;28;20067;-62
2021/03/01 00:09:08;;;;;;;5.85;2.15;;;;;;;22.59;49.53;102908.16;5075071;28;20025;-62
2021/03/01 00:11:33;;;;;;;8.95;2.40;;;;;;;22.58;52.36;102899.06;5075301;28;20032;-62
2021/03/01 00:13:59;;;;;;;4.68;1.85;;;;;;;22.46;53.85;102903.00;5074614;28;20077;-62
2021/03/01 00:16:25;;;;;;;8.85;2.45;;;;;;;22.45;51.13;102907.63;5075176;28;20029;-62
2021/03/01 00:18:50;;;;;;;7.85;2.00;;;;;;;22.63;49.53;102906.84;5075097;28;20498;-62
2021/03/01 00:21:16;;;;;;;6.63;2.15;;;;;;;22.46;50.29;102908.47;5075098;28;20483;-62
2021/03/01 00:23:41;;;;;;;9.40;2.78;;;;;;;22.45;51.60;102913.09;5074616;28;20024;-62
2021/03/01 00:26:06;;;;;;;10.23;3.67;;;;;;;22.36;51.08;102908.53;5074372;28;20060;-62
2021/03/01 00:28:32;;;;;;;7.63;2.53;;;;;;;22.34;50.99;102894.13;5074691;28;20029;-62
2021/03/01 00:30:57;;;;;;;9.23;3.33;;;;;;;22.28;51.18;102889.22;5074598;28;20496;-62
2021/03/01 00:33:22;;;;;;;8.45;2.20;;;;;;;22.21;50.23;102905.41;5074861;28;20048;-62
2021/03/01 00:35:47;;;;;;;7.40;2.90;;;;;;;22.20;49.58;102905.53;5074555;28;20475;-62
2021/03/01 00:38:13;;;;;;;7.97;2.28;;;;;;;22.16;49.19;102901.34;5074726;28;20074;-62
2021/03/01 00:40:38;;;;;;;8.18;2.47;;;;;;;22.14;49.41;102903.38;5074626;28;20052;-62
2021/03/01 00:43:03;;;;;;;7.82;2.10;;;;;;;22.11;48.77;102899.06;5074145;28;20044;-62
2021/03/01 00:45:29;;;;;;;5.28;2.53;;;;;;;22.09;49.22;102905.69;5074572;28;20020;-62
2021/03/01 00:47:54;;;;;;;7.85;2.60;;;;;;;22.09;48.66;102908.44;5074232;28;20108;-62
2021/03/01 00:50:19;;;;;;;8.43;2.85;;;;;;;22.12;50.62;102928.19;5074591;28;20028;-62
2021/03/01 00:52:45;;;;;;;6.90;2.20;;;;;;;22.09;47.94;102928.47;5074251;28;20408;-62
2021/03/01 00:55:10;;;;;;;6.55;2.47;;;;;;;22.08;49.15;102934.09;5074190;28;20460;-62
2021/03/01 00:57:35;;;;;;;7.80;2.55;;;;;;;22.06;48.72;102925.16;5074034;28;20029;-62
2021/03/01 01:00:07;;;;;;;10.05;2.75;;;;;;;22.10;48.74;102932.06;5073659;28;20480;-62
2021/03/01 01:02:32;;;;;;;7.07;1.95;;;;;;;22.08;47.31;102925.88;5074283;28;20029;-61
2021/03/01 01:04:57;;;;;;;6.13;1.80;;;;;;;22.04;47.08;102906.13;5073887;28;20066;-63
2021/03/01 01:07:23;;;;;;;5.47;1.83;;;;;;;22.15;47.69;102916.91;5074198;28;20055;-62
2021/03/01 01:09:48;;;;;;;5.65;2.10;;;;;;;22.19;46.83;102912.03;5073823;28;20025;-61
2021/03/01 01:12:13;;;;;;;7.13;2.50;;;;;;;22.20;48.21;102911.88;5074114;28;20025;-62
2021/03/01 01:14:38;;;;;;;6.68;2.58;;;;;;;22.24;47.95;102904.22;5073916;28;20044;-62
2021/03/01 01:17:05;;;;;;;6.15;2.15;;;;;;;22.27;47.26;102895.72;5072551;28;20021;-62
2021/03/01 01:19:31;;;;;;;8.23;2.72;;;;;;;22.30;47.24;102891.81;5073983;28;20033;-62
2021/03/01 01:21:56;;;;;;;6.40;1.60;;;;;;;22.30;49.84;102886.31;5073522;28;20028;-62
2021/03/01 01:24:21;;;;;;;7.85;2.33;;;;;;;22.31;50.69;102877.09;5073492;28;20452;-61
2021/03/01 01:26:46;;;;;;;4.15;1.50;;;;;;;22.27;50.53;102871.03;5073450;28;20024;-62
2021/03/01 01:29:12;;;;;;;5.55;1.90;;;;;;;22.12;53.80;102867.03;5073755;28;20413;-62
2021/03/01 01:31:37;;;;;;;6.95;2.53;;;;;;;22.16;53.26;102863.00;5073672;28;20027;-62
2021/03/01 01:34:02;;;;;;;6.03;2.15;;;;;;;22.12;55.48;102851.47;5073419;28;20021;-62
2021/03/01 01:36:28;;;;;;;8.25;2.88;;;;;;;22.16;53.44;102852.03;5073891;28;20047;-61
2021/03/01 01:38:53;;;;;;;8.45;2.65;;;;;;;22.28;53.26;102845.38;5073296;28;20024;-61
2021/03/01 01:41:19;;;;;;;8.68;2.08;;;;;;;22.25;54.26;102845.69;5073392;28;20471;-62
2021/03/01 01:43:45;;;;;;;6.30;2.30;;;;;;;22.36;53.82;102842.75;5073305;28;20028;-62
2021/03/01 01:46:10;;;;;;;10.18;3.13;;;;;;;22.37;54.05;102832.66;5073289;28;20066;-62
2021/03/01 01:48:36;;;;;;;7.07;2.78;;;;;;;22.36;49.03;102820.84;5073257;28;20036;-62
2021/03/01 01:51:01;;;;;;;7.57;2.42;;;;;;;22.28;49.32;102825.31;5073380;28;20020;-62
2021/03/01 01:53:26;;;;;;;8.20;2.47;;;;;;;22.15;50.31;102834.72;5072095;28;20028;-61
2021/03/01 01:55:52;;;;;;;9.13;3.83;;;;;;;22.13;49.95;102819.47;5072054;28;20025;-62
2021/03/01 01:58:17;;;;;;;9.73;2.65;;;;;;;22.25;50.01;102817.41;5073264;28;20028;-61
2021/03/01 02:03:27;;;;;;;7.00;2.45;;;;;;;22.11;49.04;102810.53;5073311;28;20020;-62
2021/03/01 02:05:55;;;;;;;9.48;2.60;;;;;;;22.02;48.81;102823.22;5072754;28;20020;-62
2021/03/01 02:08:32;;;;;;;9.05;2.45;;;;;;;21.95;48.65;102826.69;5073023;28;20035;-62
2021/03/01 02:11:08;;;;;;;5.28;1.90;;;;;;;21.92;48.95;102822.38;5071538;28;20111;-62
2021/03/01 02:13:42;;;;;;;6.25;2.42;;;;;;;21.91;47.22;102831.59;5073348;28;20028;-62
2021/03/01 02:16:27;;;;;;;8.50;2.25;;;;;;;21.91;47.06;102824.25;5072792;28;20083;-62
2021/03/01 02:18:53;;;;;;;10.23;2.30;;;;;;;21.85;47.60;102805.69;5072338;28;20052;-62
2021/03/01 02:21:18;;;;;;;8.32;2.38;;;;;;;21.85;47.41;102816.63;5072821;28;20067;-62
2021/03/01 02:23:43;;;;;;;9.27;2.42;;;;;;;21.79;47.63;102800.78;5072714;28;20035;-62
2021/03/01 02:26:16;;;;;;;6.55;2.00;;;;;;;21.82;48.09;102792.25;5072590;28;20360;-62
2021/03/01 02:28:46;;;;;;;6.85;2.40;;;;;;;21.85;48.49;102805.69;5072509;28;20059;-62
2021/03/01 02:31:12;;;;;;;5.53;2.03;;;;;;;21.83;48.87;102791.25;5072707;28;20375;-62
2021/03/01 02:33:44;;;;;;;8.50;2.22;;;;;;;21.81;50.80;102790.53;5073032;28;20077;-62
2021/03/01 02:36:14;;;;;;;5.43;2.28;;;;;;;21.88;48.85;102786.22;5072787;28;20066;-62
2021/03/01 02:38:41;;;;;;;6.60;2.10;;;;;;;21.83;49.30;102780.28;5072538;28;20021;-62
2021/03/01 02:41:09;;;;;;;8.52;2.10;;;;;;;21.82;49.33;102778.56;5072321;28;20626;-61
2021/03/01 02:43:36;;;;;;;5.75;2.00;;;;;;;21.88;51.60;102771.66;5072690;28;20029;-62
2021/03/01 02:46:03;;;;;;;8.45;2.50;;;;;;;21.90;49.98;102770.50;5072256;28;20199;-61
2021/03/01 02:48:31;;;;;;;6.22;1.90;;;;;;;21.96;48.77;102760.81;5072148;28;20383;-62
2021/03/01 02:50:57;;;;;;;4.28;1.63;;;;;;;21.95;50.39;102736.31;5072224;28;20487;-62
2021/03/01 02:53:25;;;;;;;5.07;1.83;;;;;;;22.03;49.34;102733.69;5072175;28;20024;-62
2021/03/01 02:55:52;;;;;;;5.25;1.50;;;;;;;22.10;49.91;102729.38;5072147;28;20020;-61
2021/03/01 02:58:18;;;;;;;4.68;1.90;;;;;;;22.13;50.74;102721.69;5072487;28;20035;-62
2021/03/01 03:00:45;;;;;;;7.00;1.90;;;;;;;22.16;49.70;102715.06;5072279;28;20494;-62
2021/03/01 03:03:12;;;;;;;6.50;1.98;;;;;;;22.19;51.70;102714.78;5072051;28;20065;-62
2021/03/01 03:05:39;;;;;;;5.68;2.13;;;;;;;22.23;49.33;102710.72;5072423;28;20053;-62
2021/03/01 03:08:05;;;;;;;6.15;1.85;;;;;;;22.16;53.10;102698.63;5076191;28;20478;-62
2021/03/01 03:10:31;;;;;;;6.70;2.10;;;;;;;22.18;53.06;102689.25;5076510;28;20020;-61
2021/03/01 03:12:58;;;;;;;7.28;2.30;;;;;;;22.20;54.35;102683.63;5076119;28;20029;-62
2021/03/01 03:15:25;;;;;;;9.35;2.85;;;;;;;22.13;53.38;102669.66;5076322;28;20039;-63
2021/03/01 03:17:52;;;;;;;6.90;2.10;;;;;;;22.17;54.19;102661.97;5075558;28;20047;-62
2021/03/01 03:20:18;;;;;;;7.57;2.63;;;;;;;22.21;54.41;102653.34;5075953;28;20058;-62
2021/03/01 03:22:43;;;;;;;7.15;2.25;;;;;;;22.22;53.56;102648.72;5076085;28;20020;-62
2021/03/01 03:25:09;;;;;;;9.40;2.60;;;;;;;22.32;53.75;102652.22;5076344;28;20519;-62
2021/03/01 03:27:35;;;;;;;5.80;2.38;;;;;;;22.32;53.11;102640.41;5076004;28;20111;-62
2021/03/01 03:30:01;;;;;;;11.10;2.47;;;;;;;22.29;53.42;102649.81;5075800;28;20067;-62
2021/03/01 03:32:27;;;;;;;7.07;2.30;;;;;;;22.31;48.36;102645.03;5076056;28;20027;-62
2021/03/01 03:34:53;;;;;;;7.20;2.72;;;;;;;22.14;50.42;102637.63;5075679;28;20025;-62
2021/03/01 03:37:27;;;;;;;7.82;2.33;;;;;;;22.05;50.71;102636.69;5075970;28;20038;-62
2021/03/01 03:39:55;;;;;;;;;;;;;;;22.11;51.38;102644.28;5075996;28;20103;-62
2021/03/01 03:42:22;;;;;;;7.63;2.25;;;;;;;22.14;50.58;102635.75;5075719;28;19916;-62
2021/03/01 03:44:51;;;;;;;8.57;2.28;;;;;;;22.06;50.23;102654.00;5075433;28;20020;-62
2021/03/01 03:47:17;;;;;;;7.30;2.28;;;;;;;22.01;49.93;102642.59;5075482;28;20028;-62
2021/03/01 03:49:44;;;;;;;9.32;2.67;;;;;;;21.82;49.41;102630.72;5075609;28;20024;-62
2021/03/01 03:52:13;;;;;;;8.40;2.40;;;;;;;21.85;49.17;102646.88;5075530;28;20035;-62
2021/03/01 03:54:41;;;;;;;9.65;2.67;;;;;;;21.78;48.16;102568.22;5075530;28;20031;-62
2021/03/01 03:57:11;;;;;;;5.63;1.67;;;;;;;21.75;48.24;102563.91;5075476;28;20097;-62
2021/03/01 03:59:40;;;;;;;10.23;2.72;;;;;;;21.74;48.87;102561.31;5075556;28;20463;-63
2021/03/01 04:02:08;;;;;;;5.75;2.40;;;;;;;21.77;47.57;102654.94;5075207;28;20460;-63
2021/03/01 04:04:36;;;;;;;11.80;2.55;;;;;;;21.67;47.55;102626.78;5075493;28;20062;-62
2021/03/01 04:07:02;;;;;;;7.63;2.10;;;;;;;21.70;47.46;102637.41;5075308;28;20023;-62
2021/03/01 04:09:28;;;;;;;7.25;1.65;;;;;;;21.69;47.64;102634.84;5075100;28;20028;-62
2021/03/01 04:11:54;;;;;;;7.72;2.40;;;;;;;21.75;50.07;102632.34;5074982;28;20465;-62
2021/03/01 04:14:25;;;;;;;9.02;2.17;;;;;;;21.73;48.01;102628.91;5074941;28;20031;-62
2021/03/01 04:16:54;;;;;;;6.10;1.88;;;;;;;21.66;49.24;102624.16;5074631;28;20484;-62
2021/03/01 04:19:22;;;;;;;8.18;2.67;;;;;;;21.66;48.11;102616.81;5074631;28;20353;-62
2021/03/01 04:21:51;;;;;;;5.70;1.90;;;;;;;21.74;50.33;102627.03;5074886;28;20482;-63
2021/03/01 04:24:18;;;;;;;6.60;2.22;;;;;;;21.74;49.81;102605.97;5075121;28;20024;-63
2021/03/01 04:26:45;;;;;;;8.18;2.50;;;;;;;21.78;51.53;102604.66;5074873;28;20146;-63
2021/03/01 04:29:10;;;;;;;7.97;1.88;;;;;;;21.70;47.96;102590.88;5074901;28;20025;-62
2021/03/01 04:31:37;;;;;;;9.05;2.63;;;;;;;21.69;48.40;102585.56;5074999;28;20028;-63
2021/03/01 04:34:04;;;;;;;5.63;2.25;;;;;;;21.71;48.58;102589.88;5074617;28;20115;-63
2021/03/01 04:36:30;;;;;;;5.53;2.25;;;;;;;21.68;46.98;102584.69;5074947;28;20025;-62
2021/03/01 04:38:55;;;;;;;5.57;1.75;;;;;;;21.85;47.88;102602.19;5074480;28;20051;-62
2021/03/01 04:41:22;;;;;;;6.43;1.80;;;;;;;21.90;48.57;102600.72;5074637;28;20034;-63
2021/03/01 04:43:49;;;;;;;3.90;2.08;;;;;;;21.97;47.32;102600.09;5074493;28;20039;-63
2021/03/01 04:46:16;;;;;;;4.97;1.65;;;;;;;22.01;48.56;102590.56;5074424;28;20380;-62
2021/03/01 04:48:42;;;;;;;5.65;1.80;;;;;;;22.05;48.57;102581.06;5073999;28;20032;-62
2021/03/01 04:51:09;;;;;;;6.00;2.15;;;;;;;22.09;48.86;102582.47;5074080;28;20035;-62
2021/03/01 04:53:34;;;;;;;7.07;2.47;;;;;;;22.09;48.63;102577.00;5074620;28;20021;-62
2021/03/01 04:56:04;;;;;;;5.63;1.70;;;;;;;22.07;52.04;102568.06;5074708;28;20372;-62
2021/03/01 04:58:30;;;;;;;7.35;1.80;;;;;;;22.06;52.01;102563.59;5074410;28;20044;-62
2021/03/01 05:00:59;;;;;;;12.02;3.50;;;;;;;22.03;54.38;102522.81;5074127;28;20472;-62
2021/03/01 05:03:25;;;;;;;8.70;2.30;;;;;;;22.42;51.24;102579.03;5074375;28;20497;-63
2021/03/01 05:05:50;;;;;;;10.10;3.25;;;;;;;22.45;47.42;102523.06;5073962;28;20448;-62
2021/03/01 05:08:17;;;;;;;7.03;2.50;;;;;;;22.47;49.46;102542.94;5074228;28;20025;-62
2021/03/01 05:10:44;;;;;;;7.95;2.85;;;;;;;22.56;51.26;102560.31;5073972;28;20492;-62
2021/03/01 05:13:09;;;;;;;11.25;2.75;;;;;;;22.68;51.85;102567.28;5074105;28;20033;-62
2021/03/01 05:15:34;;;;;;;6.85;2.55;;;;;;;22.79;51.81;102558.78;5074125;28;20069;-62
2021/03/01 05:18:01;;;;;;;7.03;2.60;;;;;;;22.98;53.06;102553.13;5073621;28;20033;-62
2021/03/01 05:20:26;;;;;;;6.10;2.05;;;;;;;23.13;53.06;102544.31;5074025;28;20353;-63
2021/03/01 05:22:52;;;;;;;6.90;2.00;;;;;;;23.16;52.00;102549.47;5073642;28;20028;-62
2021/03/01 05:25:17;;;;;;;7.38;2.00;;;;;;;22.97;51.80;102556.03;5074015;28;20390;-62
2021/03/01 05:27:42;;;;;;;7.43;2.20;;;;;;;22.85;53.47;102563.69;5073672;28;20052;-62
2021/03/01 05:30:10;;;;;;;7.35;2.03;;;;;;;22.71;51.83;102556.00;5072658;28;20028;-61
2021/03/01 05:32:37;;;;;;;5.07;2.03;;;;;;;22.64;50.41;102560.38;5073650;28;20024;-62
2021/03/01 05:35:04;;;;;;;8.75;2.30;;;;;;;22.63;49.68;102564.16;5073554;28;20074;-62
2021/03/01 05:37:29;;;;;;;6.20;1.95;;;;;;;22.66;49.17;102558.34;5073629;28;20487;-63
2021/03/01 05:39:55;;;;;;;8.63;1.83;;;;;;;22.68;49.80;102548.09;5073585;28;20025;-62
2021/03/01 05:42:22;;;;;;;7.72;2.80;;;;;;;22.71;48.11;102545.03;5073410;28;20040;-62
2021/03/01 05:44:47;;;;;;;11.13;2.30;;;;;;;22.70;48.21;102537.84;5073201;28;20035;-61
2021/03/01 05:47:12;;;;;;;8.18;2.38;;;;;;;22.68;48.01;102551.69;5073152;28;20313;-61
2021/03/01 05:49:39;;;;;;;5.75;1.77;;;;;;;22.68;47.62;102545.38;5073410;28;20028;-62
2021/03/01 05:52:06;;;;;;;5.32;1.85;;;;;;;22.67;47.16;102554.56;5073117;28;20032;-62
2021/03/01 05:54:35;;;;;;;6.47;2.25;;;;;;;22.71;48.67;102539.56;5073339;28;20416;-62
2021/03/01 05:57:04;;;;;;;4.93;2.22;;;;;;;22.80;49.15;102539.44;5072615;28;20035;-62
2021/03/01 05:59:30;;;;;;;5.05;2.00;;;;;;;22.88;49.44;102546.06;5073050;28;20356;-62
2021/03/01 06:01:55;;;;;;;7.18;2.28;;;;;;;22.90;49.80;102538.53;5072761;28;20468;-61
2021/03/01 06:04:21;;;;;;;5.95;1.75;;;;;;;22.95;50.48;102539.75;5073084;28;20074;-62
2021/03/01 06:06:46;;;;;;;6.50;1.88;;;;;;;22.95;49.59;102547.97;5072868;28;20082;-61
2021/03/01 06:09:11;;;;;;;7.15;2.17;;;;;;;22.92;49.61;102545.56;5072866;28;20103;-61
2021/03/01 06:11:36;;;;;;;7.30;2.35;;;;;;;22.92;50.62;102548.31;5073029;28;20039;-61
2021/03/01 06:14:03;;;;;;;8.88;2.63;;;;;;;22.90;49.63;102560.47;5072647;28;20456;-61
2021/03/01 06:16:29;;;;;;;5.50;2.38;;;;;;;22.90;49.44;102550.34;5072484;28;20021;-61
2021/03/01 06:18:54;;;;;;;7.72;2.22;;;;;;;22.88;49.54;102544.16;5072086;28;20021;-61
2021/03/01 06:21:22;;;;;;;9.07;2.30;;;;;;;22.87;49.47;102550.69;5072706;28;20023;-61
2021/03/01 06:23:48;;;;;;;5.63;2.42;;;;;;;22.93;49.52;102547.28;5072727;28;20439;-61
2021/03/01 06:26:31;;;;;;;4.03;1.85;;;;;;;22.99;49.38;102532.91;5072739;28;20040;-61
2021/03/01 06:29:02;;;;;;;5.50;2.20;;;;;;;23.04;49.81;102525.06;5072463;28;20064;-62
2021/03/01 06:31:38;;;;;;;7.38;2.10;;;;;;;23.04;49.02;102518.72;5072807;28;20487;-62
2021/03/01 06:34:42;;;;;;;8.65;2.25;;;;;;;23.07;48.22;102518.41;5072508;28;20035;-62
2021/03/01 06:37:17;;;;;;;6.22;2.25;;;;;;;23.07;48.19;102521.13;5070075;28;20028;-61
2021/03/01 06:39:45;;;;;;;7.55;2.08;;;;;;;23.08;48.71;102526.47;5070129;28;20035;-62
2021/03/01 06:42:16;;;;;;;3.72;1.40;;;;;;;23.13;48.19;102516.88;5069658;28;20047;-61
2021/03/01 06:44:46;;;;;;;4.60;1.95;;;;;;;23.07;48.07;102502.81;5070018;28;20028;-61
2021/03/01 06:47:11;;;;;;;5.60;2.08;;;;;;;23.10;47.59;102510.69;5060422;28;20058;-62
2021/03/01 06:49:40;;;;;;;5.00;1.67;;;;;;;23.11;47.89;102495.94;5050164;28;20476;-62
2021/03/01 06:52:06;;;;;;;3.83;1.52;;;;;;;23.09;47.88;102517.22;5049840;28;20065;-62
2021/03/01 06:54:32;;;;;;;5.53;1.70;;;;;;;23.16;46.92;102509.16;5068715;28;20041;-61
2021/03/01 06:56:58;;;;;;;5.90;1.80;;;;;;;23.18;47.73;102509.00;5069464;28;20036;-61
2021/03/01 06:59:23;;;;;;;6.75;1.50;;;;;;;23.17;46.52;102499.91;5070124;28;20482;-61
2021/03/01 07:01:53;;;;;;;5.57;2.00;;;;;;;23.16;46.92;102489.09;5069553;28;20032;-61
2021/03/01 07:04:29;;;;;;;5.00;1.63;;;;;;;23.15;46.81;102481.91;5069776;28;20055;-61
2021/03/01 07:06:59;;;;;;;6.43;2.00;;;;;;;23.20;47.14;102485.03;5069783;28;20040;-62
2021/03/01 07:09:27;;;;;;;4.50;1.70;;;;;;;23.20;47.23;102458.47;5072246;28;20036;-62
2021/03/01 07:11:53;;;;;;;5.82;1.95;;;;;;;23.24;47.47;102487.28;5071505;28;20024;-61
2021/03/01 07:14:21;;;;;;;6.43;1.88;;;;;;;23.26;47.60;102456.94;5071132;28;20066;-61
2021/03/01 07:16:47;;;;;;;6.10;1.98;;;;;;;23.31;48.58;102465.50;5070652;28;20217;-61
2021/03/01 07:19:26;;;;;;;5.25;2.10;;;;;;;23.34;46.17;102455.06;5070783;28;20028;-61
2021/03/01 07:21:53;;;;;;;9.52;2.15;;;;;;;23.26;47.77;102445.94;5071089;28;20554;-62
2021/03/01 07:24:21;;;;;;;6.70;2.15;;;;;;;23.25;47.81;102455.22;5072258;28;20047;-61
2021/03/01 07:26:48;;;;;;;6.25;2.30;;;;;;;23.24;48.56;102442.53;5069630;28;20024;-61
2021/03/01 07:29:16;;;;;;;9.73;2.80;;;;;;;23.18;48.84;102465.09;5069750;28;20031;-62
2021/03/01 07:31:46;;;;;;;6.13;1.77;;;;;;;23.16;47.17;102483.63;5070642;28;20021;-61
2021/03/01 07:34:11;;;;;;;5.63;2.13;;;;;;;23.13;47.41;102501.28;5071900;28;20526;-61
2021/03/01 07:36:37;;;;;;;8.95;2.67;;;;;;;23.03;49.21;102511.53;5071667;28;20036;-61
2021/03/01 07:39:06;;;;;;;4.80;1.75;;;;;;;23.05;46.69;102499.34;5071066;28;20028;-61
2021/03/01 07:41:32;;;;;;;6.15;2.35;;;;;;;22.93;46.77;102484.19;5071021;28;20040;-63
2021/03/01 07:43:59;;;;;;;6.20;1.98;;;;;;;23.00;49.29;102514.56;5063456;28;20070;-63
2021/03/01 07:46:34;;;;;;;5.35;1.90;;;;;;;23.02;49.28;102521.63;5063887;28;20492;-61
2021/03/01 07:48:59;;;;;;;;;;;;;;;23.02;47.25;102532.59;5071378;28;20365;-62
2021/03/01 07:51:45;;;;;;;6.03;2.45;;;;;;;23.08;46.67;102520.97;5069549;28;19934;-62
2021/03/01 07:54:14;;;;;;;6.72;2.05;;;;;;;23.03;46.02;102495.94;5072846;28;20419;-62
2021/03/01 07:56:39;;;;;;;6.13;2.40;;;;;;;23.08;45.82;102514.63;5056619;28;20024;-62
2021/03/01 07:59:09;;;;;;;8.20;2.30;;;;;;;23.11;47.27;102526.13;5065657;28;20030;-63
2021/03/01 08:01:35;;;;;;;6.00;2.05;;;;;;;23.15;46.11;102536.78;5074247;28;20268;-61
2021/03/01 08:04:02;;;;;;;8.23;2.10;;;;;;;23.10;45.90;102515.31;5069862;28;20029;-62
2021/03/01 08:06:53;;;;;;;7.30;2.13;;;;;;;23.09;46.49;102519.94;5071327;28;20383;-62
2021/03/01 08:09:53;;;;;;;6.68;2.35;;;;;;;23.13;46.73;102505.91;5072321;28;20151;-62
2021/03/01 08:12:27;;;;;;;7.30;2.33;;;;;;;23.09;45.56;102530.94;5072788;28;20490;-62
2021/03/01 08:14:53;;;;;;;;;;;;;;;23.07;47.61;102519.25;5073541;28;20479;-62
2021/03/01 08:17:30;;;;;;;6.22;2.13;;;;;;;23.07;46.42;102513.78;5071750;28;20452;-62
2021/03/01 08:19:58;;;;;;;8.75;2.42;;;;;;;23.13;45.87;102516.88;5071211;28;20024;-62
2021/03/01 08:22:27;;;;;;;5.03;2.00;;;;;;;23.18;47.85;102514.50;5071987;28;20028;-62
2021/03/01 08:24:55;;;;;;;10.02;1.90;;;;;;;23.20;48.08;102509.72;5073398;28;20063;-62
2021/03/01 08:27:26;;;;;;;4.63;1.95;;;;;;;23.17;45.66;102499.06;5054682;28;20104;-62
2021/03/01 08:30:24;;;;;;;6.93;2.17;;;;;;;23.23;46.80;102503.91;5069130;28;20024;-62
2021/03/01 08:33:13;;;;;;;5.30;1.85;;;;;;;23.27;45.06;102491.56;5089468;28;20031;-60
2021/03/01 08:35:52;;;;;;;5.85;1.80;;;;;;;23.26;48.07;102468.75;5077407;28;20124;-60
2021/03/01 08:38:41;;;;;;;4.70;1.70;;;;;;;23.23;45.67;102473.72;5074199;28;20668;-60
2021/03/01 08:41:07;;;;;;;4.85;1.70;;;;;;;23.29;44.76;102467.56;5073619;28;20029;-60
2021/03/01 08:43:37;;;;;;;5.57;2.20;;;;;;;23.27;45.15;102459.50;5068770;28;20055;-60
2021/03/01 08:46:07;;;;;;;8.40;2.20;;;;;;;23.33;44.70;102490.91;5070380;28;20061;-60
2021/03/01 08:48:38;;;;;;;6.03;1.80;;;;;;;23.34;44.18;102476.16;5074136;28;20066;-60
2021/03/01 08:51:04;;;;;;;4.53;2.03;;;;;;;23.37;44.76;102464.88;5072964;28;20411;-60
2021/03/01 08:53:29;;;;;;;6.78;2.35;;;;;;;23.29;44.76;102462.06;5071662;28;20063;-61
2021/03/01 08:55:57;;;;;;;6.50;2.38;;;;;;;23.34;44.40;102473.41;5074156;28;20319;-60
2021/03/01 08:58:25;;;;;;;7.30;2.38;;;;;;;23.36;44.13;102475.00;5063005;28;20029;-60
2021/03/01 09:00:56;;;;;;;4.85;1.63;;;;;;;23.35;44.08;102473.28;5063893;28;20020;-60
2021/03/01 09:03:22;;;;;;;5.97;1.98;;;;;;;23.43;44.38;102486.16;5073012;28;20024;-60
2021/03/01 09:05:49;;;;;;;5.95;2.28;;;;;;;23.46;45.49;102483.06;5073054;28;20032;-60
2021/03/01 09:08:26;;;;;;;7.70;2.13;;;;;;;23.50;45.10;102487.19;5073433;28;20371;-60
2021/03/01 09:10:52;;;;;;;5.45;1.73;;;;;;;23.58;46.33;102480.94;5070585;28;20027;-60
2021/03/01 09:13:20;;;;;;;7.32;2.55;;;;;;;23.59;48.11;102463.41;5070057;28;20053;-60
2021/03/01 09:15:46;;;;;;;6.30;2.38;;;;;;;23.59;47.79;102471.66;5071843;28;20474;-60
2021/03/01 09:18:14;;;;;;;5.53;2.33;;;;;;;23.54;47.83;102463.91;5069000;28;20433;-60
2021/03/01 09:20:55;;;;;;;5.75;2.25;;;;;;;23.48;48.74;102459.06;5068814;28;20067;-61
2021/03/01 09:23:42;;;;;;;7.53;2.53;;;;;;;23.43;49.82;102458.72;5066913;28;20115;-60
2021/03/01 09:26:16;;;;;;;6.57;2.35;;;;;;;23.35;49.31;102444.97;5072001;28;20024;-60
2021/03/01 09:28:41;;;;;;;7.60;2.50;;;;;;;23.21;49.06;102427.25;5071443;28;20037;-61
2021/03/01 09:31:11;;;;;;;8.65;2.33;;;;;;;23.15;49.44;102425.16;5070924;28;20481;-61
2021/03/01 09:33:38;;;;;;;7.60;2.72;;;;;;;23.29;48.70;102453.84;5053776;28;20024;-61
2021/03/01 09:36:06;;;;;;;7.47;2.58;;;;;;;23.22;48.28;102439.09;5069404;28;20511;-60
2021/03/01 09:38:32;;;;;;;8.10;2.58;;;;;;;23.20;47.93;102435.66;5069774;28;20500;-60
2021/03/01 09:41:03;;;;;;;7.72;2.42;;;;;;;23.17;47.75;102450.53;5073114;28;20118;-60
2021/03/01 09:43:29;;;;;;;5.55;2.38;;;;;;;23.27;48.45;102465.00;5073142;28;20056;-61
2021/03/01 09:45:55;;;;;;;12.25;2.58;;;;;;;23.31;47.26;102465.50;5069048;28;20435;-60
2021/03/01 09:48:21;;;;;;;6.57;1.92;;;;;;;23.34;48.87;102467.91;5072440;28;20021;-60
2021/03/01 09:50:48;;;;;;;8.07;2.80;;;;;;;23.30;46.92;102441.84;5071711;28;20031;-61
2021/03/01 09:53:17;;;;;;;7.47;2.53;;;;;;;23.32;47.94;102448.03;5073010;28;20024;-60
2021/03/01 09:55:44;;;;;;;6.50;2.03;;;;;;;23.30;46.40;102452.81;5070574;28;20143;-60
2021/03/01 09:58:25;;;;;;;6.30;2.08;;;;;;;23.29;46.61;102462.06;5072401;28;20541;-60
2021/03/01 10:00:51;;;;;;;9.75;2.83;;;;;;;23.22;46.97;102439.09;5068655;28;20036;-60
2021/03/01 10:03:17;;;;;;;8.60;2.60;;;;;;;23.27;46.28;102445.78;5072306;28;20065;-60
2021/03/01 10:05:50;;;;;;;7.10;2.45;;;;;;;23.18;50.86;102465.09;5072195;28;20029;-60
2021/03/01 10:08:21;;;;;;;6.38;2.38;;;;;;;23.21;46.51;102454.69;5072456;28;20035;-60
2021/03/01 10:10:48;;;;;;;8.90;2.47;;;;;;;23.25;46.87;102460.69;5072484;28;20035;-61
2021/03/01 10:13:24;;;;;;;9.98;2.17;;;;;;;23.31;45.72;102465.50;5073559;28;20099;-60
2021/03/01 10:15:49;;;;;;;6.63;2.08;;;;;;;23.31;45.74;102463.63;5071690;28;20036;-60
2021/03/01 10:18:15;;;;;;;6.82;2.20;;;;;;;23.33;45.38;102469.81;5072871;28;20379;-60
2021/03/01 10:20:51;;;;;;;7.55;2.00;;;;;;;23.34;45.16;102467.91;5071830;28;20032;-60
2021/03/01 10:23:37;;;;;;;8.60;1.92;;;;;;;23.35;48.66;102464.19;5067679;28;20060;-60
2021/03/01 10:26:15;;;;;;;5.90;1.90;;;;;;;23.39;45.20;102462.81;5070516;28;20039;-60
2021/03/01 10:28:43;;;;;;;6.43;2.03;;;;;;;23.40;44.62;102472.78;5071573;28;20497;-61
2021/03/01 10:31:12;;;;;;;6.00;1.92;;;;;;;23.34;45.25;102471.53;5072176;28;20029;-61
2021/03/01 10:33:56;;;;;;;4.47;1.75;;;;;;;23.41;45.13;102489.06;5072336;28;20016;-61
2021/03/01 10:36:23;;;;;;;5.90;1.60;;;;;;;23.45;44.70;102489.59;5072472;28;20126;-61
2021/03/01 10:39:00;;;;;;;7.25;2.17;;;;;;;23.47;45.42;102505.88;5071172;28;20024;-61
2021/03/01 10:41:29;;;;;;;6.15;2.35;;;;;;;23.49;45.42;102501.94;5070954;28;20027;-60
2021/03/01 10:44:04;;;;;;;8.45;2.10;;;;;;;23.49;50.38;102526.66;5071919;28;20025;-61
2021/03/01 10:46:31;;;;;;;8.25;1.88;;;;;;;23.43;44.69;102524.59;5071830;28;20025;-61
2021/03/01 10:48:58;;;;;;;4.70;1.65;;;;;;;23.45;45.15;102510.69;5072218;28;20028;-61
2021/03/01 10:51:23;;;;;;;5.35;1.80;;;;;;;23.50;44.77;102531.13;5071959;28;20044;-60
2021/03/01 10:53:48;;;;;;;6.97;1.80;;;;;;;23.49;48.59;102529.41;5058859;28;20028;-61
2021/03/01 10:56:14;;;;;;;7.07;2.78;;;;;;;23.54;45.29;102512.47;5062369;28;20030;-61
2021/03/01 10:58:39;;;;;;;8.57;2.28;;;;;;;23.59;44.31;102519.19;5071829;28;20024;-61
2021/03/01 11:01:04;;;;;;;5.03;1.83;;;;;;;23.61;44.97;102508.91;5071900;28;20036;-61
2021/03/01 11:03:29;;;;;;;7.20;2.05;;;;;;;23.61;49.05;102508.91;5071243;28;20020;-61
2021/03/01 11:05:55;;;;;;;7.13;2.30;;;;;;;23.70;45.28;102499.69;5072386;28;20066;-61
2021/03/01 11:08:21;;;;;;;8.65;2.30;;;;;;;23.68;45.31;102507.22;5072334;28;20044;-60
2021/03/01 11:10:46;;;;;;;5.47;1.90;;;;;;;23.58;46.48;102502.88;5071558;28;20031;-61
2021/03/01 11:13:12;;;;;;;9.73;2.55;;;;;;;23.59;46.80;102501.84;5072252;28;20028;-60
2021/03/01 11:15:38;;;;;;;7.85;2.20;;;;;;;23.50;47.59;102509.16;5071612;28;20119;-61
2021/03/01 11:18:04;;;;;;;9.32;3.17;;;;;;;23.39;46.73;102491.13;5071759;28;20058;-60
2021/03/01 11:20:30;;;;;;;7.22;2.40;;;;;;;23.32;47.84;102461.75;5069886;28;20115;-61
2021/03/01 11:22:55;;;;;;;6.20;2.53;;;;;;;23.21;49.30;102490.34;5071073;28;20123;-61
2021/03/01 11:25:20;;;;;;;7.72;1.95;;;;;;;23.28;47.21;102498.78;5071535;28;20028;-60
2021/03/01 11:27:45;;;;;;;8.98;2.80;;;;;;;23.28;46.43;102498.78;5070712;28;20036;-61
2021/03/01 11:30:12;;;;;;;8.50;2.40;;;;;;;23.30;45.92;102504.97;5075916;28;20099;-60
2021/03/01 11:32:37;;;;;;;10.73;2.83;;;;;;;23.25;46.49;102504.59;5075574;28;20017;-61
2021/03/01 11:35:03;;;;;;;6.80;2.20;;;;;;;23.29;45.71;102506.84;5074327;28;20085;-61